Time;durP1;ratioP1;P1;durP2;ratioP2;P2;SDS_P1;SDS_P2;PMS_P1;PMS_P2;Temp;Humidity;BMP_temperature;BMP_pressure;BME280_temperature;BME280_humidity;BME280_pressure;Samples;Min_cycle;Max_cycle;Signal;HPM_P1;HPM_P2
2023/03/10 00:00:18;;;;;;;21.43;10.73;;;;;;;5.96;100.00;98611.22;5099119;28;20028;-90
2023/03/10 00:02:48;;;;;;;24.83;11.05;;;;;;;5.91;100.00;98611.13;5117811;28;20024;-89
2023/03/10 00:05:20;;;;;;;20.50;11.02;;;;;;;5.84;100.00;98622.03;5082980;28;20031;-89
2023/03/10 00:07:49;;;;;;;25.10;10.90;;;;;;;5.83;100.00;98627.66;5099556;28;20054;-89
2023/03/10 00:10:17;;;;;;;23.90;10.77;;;;;;;5.86;100.00;98624.47;5099022;28;20039;-89
2023/03/10 00:12:43;;;;;;;20.38;10.43;;;;;;;5.78;100.00;98617.59;5098831;28;20472;-89
2023/03/10 00:15:12;;;;;;;22.55;11.07;;;;;;;5.77;100.00;98621.34;5098982;28;20031;-89
2023/03/10 00:17:38;;;;;;;20.20;9.82;;;;;;;5.69;100.00;98617.16;5099043;28;20360;-89
2023/03/10 00:20:10;;;;;;;21.30;9.33;;;;;;;5.60;100.00;98618.59;5098562;28;20072;-89
2023/03/10 00:22:40;;;;;;;21.20;9.85;;;;;;;5.60;100.00;98607.81;5117352;28;20035;-89
2023/03/10 00:25:07;;;;;;;19.92;9.85;;;;;;;5.60;100.00;98608.63;5098808;28;20027;-89
2023/03/10 00:27:38;;;;;;;21.02;10.23;;;;;;;5.60;100.00;98599.75;5098474;28;20046;-89
2023/03/10 00:30:07;;;;;;;21.48;10.18;;;;;;;5.58;100.00;98602.69;5099116;28;20024;-89
2023/03/10 00:32:35;;;;;;;21.92;10.10;;;;;;;5.55;100.00;98596.94;5081672;28;20400;-89
2023/03/10 00:35:04;;;;;;;18.98;9.65;;;;;;;5.62;100.00;98611.09;5098607;28;20032;-90
2023/03/10 00:37:29;;;;;;;23.88;9.90;;;;;;;5.58;100.00;98610.75;5098257;28;20031;-89
2023/03/10 00:39:55;;;;;;;21.50;10.17;;;;;;;5.54;100.00;98612.28;5098296;28;20081;-90
2023/03/10 00:42:23;;;;;;;25.15;10.52;;;;;;;5.58;100.00;98605.38;5098472;28;20027;-90
2023/03/10 00:44:48;;;;;;;24.00;10.45;;;;;;;5.65;100.00;98612.50;5098107;28;20027;-89
2023/03/10 00:47:14;;;;;;;31.35;11.57;;;;;;;5.78;100.00;98609.53;5099258;28;20061;-90
2023/03/10 00:49:42;;;;;;;27.07;11.03;;;;;;;5.86;100.00;98613.72;5116704;28;20027;-89
2023/03/10 00:52:15;;;;;;;28.92;10.95;;;;;;;5.96;100.00;98608.53;5098942;28;20031;-89
2023/03/10 00:54:43;;;;;;;25.95;10.25;;;;;;;6.04;100.00;98607.34;5083170;28;20460;-89
2023/03/10 00:57:09;;;;;;;23.53;9.90;;;;;;;6.15;100.00;98612.69;5117084;28;20106;-89
2023/03/10 00:59:34;;;;;;;24.63;9.25;;;;;;;6.31;100.00;98615.66;5098029;28;20119;-89
2023/03/10 01:02:02;;;;;;;24.83;10.33;;;;;;;6.38;100.00;98621.72;5082145;28;20376;-89
2023/03/10 01:04:29;;;;;;;26.77;9.23;;;;;;;6.45;100.00;98619.69;5115980;28;20023;-89
2023/03/10 01:07:00;;;;;;;19.30;8.40;;;;;;;6.56;100.00;98609.91;5081046;28;20039;-89
2023/03/10 01:09:29;;;;;;;18.77;8.57;;;;;;;6.67;100.00;98616.25;5081056;28;20088;-89
2023/03/10 01:11:54;;;;;;;17.35;7.80;;;;;;;6.78;100.00;98612.69;5097903;28;20027;-90
2023/03/10 01:14:22;;;;;;;16.47;7.83;;;;;;;6.91;100.00;98616.09;5098222;28;20369;-90
2023/03/10 01:16:58;;;;;;;19.60;7.70;;;;;;;7.00;100.00;98620.03;5098257;28;20111;-90
2023/03/10 01:19:31;;;;;;;17.73;7.43;;;;;;;7.02;100.00;98607.09;5097790;28;20043;-89
2023/03/10 01:22:06;;;;;;;16.17;6.65;;;;;;;7.08;100.00;98602.63;5098662;28;20085;-89
2023/03/10 01:24:35;;;;;;;20.42;7.20;;;;;;;7.18;100.00;98602.75;5116100;28;20043;-89
2023/03/10 01:27:00;;;;;;;14.73;7.10;;;;;;;7.20;100.00;98596.06;5097646;28;20038;-89
2023/03/10 01:29:28;;;;;;;17.98;7.22;;;;;;;7.28;100.00;98597.50;5097554;28;20040;-90
2023/03/10 01:31:54;;;;;;;16.57;8.37;;;;;;;7.36;100.00;98591.66;5097407;28;20051;-90
2023/03/10 01:34:21;;;;;;;13.25;7.43;;;;;;;7.42;100.00;98579.06;5097397;28;20031;-90
2023/03/10 01:36:54;;;;;;;17.80;7.88;;;;;;;7.45;100.00;98585.84;5080855;28;20024;-90
2023/03/10 01:39:20;;;;;;;17.77;8.00;;;;;;;7.47;100.00;98581.84;5097391;28;20076;-89
2023/03/10 01:41:48;;;;;;;15.48;7.90;;;;;;;7.51;100.00;98580.28;5097266;28;20122;-90
2023/03/10 01:44:19;;;;;;;15.43;6.35;;;;;;;7.55;100.00;98586.78;5096881;28;20031;-90
2023/03/10 01:46:51;;;;;;;17.70;7.67;;;;;;;7.61;100.00;98590.38;5098191;28;20114;-90
2023/03/10 01:49:42;;;;;;;14.48;7.15;;;;;;;7.55;100.00;98565.19;5096952;28;20024;-90
2023/03/10 01:52:15;;;;;;;17.00;7.45;;;;;;;7.63;100.00;98568.53;5097608;28;20375;-90
2023/03/10 01:54:50;;;;;;;16.85;7.63;;;;;;;7.62;100.00;98573.13;5097526;28;20036;-90
2023/03/10 01:57:19;;;;;;;16.92;7.95;;;;;;;7.61;100.00;98563.38;5097109;28;20081;-90
2023/03/10 01:59:46;;;;;;;19.30;8.17;;;;;;;7.64;100.00;98567.47;5096904;28;20055;-89
2023/03/10 02:02:16;;;;;;;18.35;8.45;;;;;;;7.67;100.00;98570.47;5096967;28;20085;-89
2023/03/10 02:04:47;;;;;;;21.40;8.68;;;;;;;7.70;100.00;98563.75;5096868;28;20032;-89
2023/03/10 02:07:15;;;;;;;23.35;8.95;;;;;;;7.68;100.00;98557.81;5097039;28;20051;-89
2023/03/10 02:09:43;;;;;;;18.67;8.25;;;;;;;7.68;100.00;98563.22;5115420;28;20031;-90
2023/03/10 02:12:13;;;;;;;19.20;8.60;;;;;;;7.71;100.00;98570.78;5097934;28;20035;-90
2023/03/10 02:14:43;;;;;;;22.88;8.70;;;;;;;7.73;100.00;98561.34;5099728;28;20019;-90
2023/03/10 02:17:12;;;;;;;20.65;8.48;;;;;;;7.78;100.00;98574.13;5099693;28;20115;-90
2023/03/10 02:19:56;;;;;;;20.92;8.40;;;;;;;7.75;100.00;98565.69;5097768;28;20122;-90
2023/03/10 02:22:25;;;;;;;20.77;8.45;;;;;;;7.73;100.00;98547.84;5097616;28;20059;-89
2023/03/10 02:25:19;;;;;;;22.20;8.10;;;;;;;7.70;100.00;98551.06;5079890;28;20562;-89
2023/03/10 02:27:47;;;;;;;19.92;7.18;;;;;;;7.72;100.00;98537.31;5115356;28;20062;-89
2023/03/10 02:30:27;;;;;;;20.05;7.85;;;;;;;7.71;100.00;98535.72;5096529;28;20028;-89
2023/03/10 02:33:08;;;;;;;18.92;7.88;;;;;;;7.70;100.00;98525.97;5096674;28;20039;-89
2023/03/10 02:35:45;;;;;;;17.88;7.78;;;;;;;7.72;100.00;98543.53;5097079;28;20028;-89
2023/03/10 02:38:11;;;;;;;15.87;7.27;;;;;;;7.69;100.00;98521.63;5081125;28;20035;-89
2023/03/10 02:40:49;;;;;;;20.42;8.05;;;;;;;7.66;100.00;98520.28;5096503;28;20028;-89
2023/03/10 02:43:17;;;;;;;20.95;7.15;;;;;;;7.71;100.00;98530.31;5096622;28;20140;-89
2023/03/10 02:45:52;;;;;;;21.77;7.80;;;;;;;7.65;100.00;98529.44;5097094;28;20043;-89
2023/03/10 02:48:32;;;;;;;14.38;7.07;;;;;;;7.66;100.00;98516.75;5114602;28;20036;-89
2023/03/10 02:51:07;;;;;;;19.55;7.32;;;;;;;7.67;100.00;98523.78;5114742;28;20031;-89
2023/03/10 02:53:33;;;;;;;20.77;7.03;;;;;;;7.64;100.00;98522.41;5114436;28;20023;-89
2023/03/10 02:56:04;;;;;;;16.73;6.80;;;;;;;7.62;100.00;98512.91;5096255;28;20478;-89
2023/03/10 02:58:37;;;;;;;17.92;7.45;;;;;;;7.57;100.00;98512.88;5078894;28;20028;-90
2023/03/10 03:01:17;;;;;;;22.73;6.93;;;;;;;7.55;100.00;98505.84;5096220;28;20023;-90
2023/03/10 03:04:00;;;;;;;17.17;6.55;;;;;;;7.52;100.00;98508.22;5096025;28;20028;-90
2023/03/10 03:06:39;;;;;;;16.83;6.70;;;;;;;7.45;100.00;98497.63;5096218;28;20027;-90
2023/03/10 03:09:10;;;;;;;20.77;6.60;;;;;;;7.45;100.00;98496.81;5095986;28;20024;-89
2023/03/10 03:11:43;;;;;;;18.50;6.57;;;;;;;7.48;100.00;98493.59;5096089;28;20059;-89
2023/03/10 03:14:08;;;;;;;15.85;5.93;;;;;;;7.52;100.00;98495.53;5096214;28;20035;-90
2023/03/10 03:16:45;;;;;;;17.23;6.80;;;;;;;7.55;100.00;98492.34;5114243;28;20549;-90
2023/03/10 03:19:31;;;;;;;15.05;6.28;;;;;;;7.54;100.00;98493.44;5079875;28;20032;-90
2023/03/10 03:21:56;;;;;;;17.70;6.57;;;;;;;7.52;100.00;98487.44;5095870;28;20039;-89
2023/03/10 03:24:24;;;;;;;19.73;5.90;;;;;;;7.53;100.00;98480.19;5095422;28;20122;-90
2023/03/10 03:26:58;;;;;;;15.88;5.95;;;;;;;7.58;100.00;98491.03;5096213;28;20020;-90
2023/03/10 03:29:31;;;;;;;13.30;5.50;;;;;;;7.56;100.00;98485.06;5097321;28;20552;-90
2023/03/10 03:31:59;;;;;;;15.00;4.75;;;;;;;7.59;100.00;98486.44;5095523;28;20059;-89
2023/03/10 03:34:29;;;;;;;15.43;5.22;;;;;;;7.58;100.00;98480.22;5113839;28;20031;-90
2023/03/10 03:36:57;;;;;;;19.48;5.75;;;;;;;7.66;100.00;98493.28;5095417;28;20034;-89
2023/03/10 03:39:28;;;;;;;16.05;5.20;;;;;;;7.65;100.00;98493.53;5078466;28;20436;-89
2023/03/10 03:41:56;;;;;;;17.73;5.00;;;;;;;7.66;100.00;98497.84;5096245;28;20059;-89
2023/03/10 03:44:29;;;;;;;13.63;5.03;;;;;;;7.62;100.00;98483.22;5113893;28;20032;-89
2023/03/10 03:46:54;;;;;;;21.63;4.55;;;;;;;7.63;100.00;98482.16;5114167;28;20043;-89
2023/03/10 03:49:30;;;;;;;13.52;4.53;;;;;;;7.72;100.00;98488.72;5095480;28;20027;-89
2023/03/10 03:51:55;;;;;;;12.17;4.27;;;;;;;7.70;100.00;98494.38;5079441;28;20463;-89
2023/03/10 03:54:21;;;;;;;16.92;4.55;;;;;;;7.67;100.00;98481.41;5113301;28;20031;-89
2023/03/10 03:56:49;;;;;;;15.02;4.13;;;;;;;7.68;100.00;98479.53;5095672;28;20114;-90
2023/03/10 03:59:22;;;;;;;11.38;4.13;;;;;;;7.73;100.00;98479.56;5095246;28;20066;-89
2023/03/10 04:01:53;;;;;;;9.90;3.87;;;;;;;7.73;100.00;98480.38;5095555;28;20080;-89
2023/03/10 04:04:18;;;;;;;16.98;4.00;;;;;;;7.70;100.00;98472.78;5094905;28;20526;-91
2023/03/10 04:06:46;;;;;;;11.17;3.60;;;;;;;7.75;100.00;98476.63;5096082;28;20035;-89
2023/03/10 04:09:12;;;;;;;17.63;4.40;;;;;;;7.71;100.00;98468.22;5098975;28;20383;-89
2023/03/10 04:11:41;;;;;;;11.05;2.97;;;;;;;7.76;100.00;98465.56;5081888;28;20028;-89
2023/03/10 04:14:09;;;;;;;14.77;3.10;;;;;;;7.74;100.00;98467.72;5098953;28;20063;-89
2023/03/10 04:16:37;;;;;;;8.82;3.20;;;;;;;7.72;100.00;98459.03;5116763;28;20036;-89
2023/03/10 04:19:06;;;;;;;13.77;3.50;;;;;;;7.75;100.00;98461.25;5099293;28;20024;-89
2023/03/10 04:21:38;;;;;;;11.00;3.03;;;;;;;7.75;100.00;98457.72;5117145;28;20027;-89
2023/03/10 04:24:08;;;;;;;15.63;3.20;;;;;;;7.70;100.00;98459.28;5098853;28;20073;-89
2023/03/10 04:26:34;;;;;;;18.60;3.40;;;;;;;7.70;100.00;98458.50;5082730;28;20499;-90
2023/03/10 04:29:02;;;;;;;18.53;3.00;;;;;;;7.66;100.00;98462.75;5117179;28;20107;-90
2023/03/10 04:31:27;;;;;;;14.45;2.67;;;;;;;7.61;100.00;98466.22;5098178;28;20044;-89
2023/03/10 04:33:53;;;;;;;11.97;2.90;;;;;;;7.56;100.00;98466.19;5098077;28;20357;-89
2023/03/10 04:36:24;;;;;;;16.97;2.73;;;;;;;7.54;100.00;98469.16;5099320;28;20027;-89
2023/03/10 04:38:53;;;;;;;18.25;2.42;;;;;;;7.57;100.00;98461.59;5082574;28;20306;-89
2023/03/10 04:41:21;;;;;;;18.60;2.72;;;;;;;7.49;100.00;98463.69;5081346;28;20032;-90
2023/03/10 04:43:56;;;;;;;20.85;3.20;;;;;;;7.48;100.00;98448.53;5097919;28;20471;-90
2023/03/10 04:47:00;;;;;;;16.88;2.92;;;;;;;7.49;100.00;98460.19;5098845;28;20020;-90
2023/03/10 04:49:28;;;;;;;15.65;2.47;;;;;;;7.44;100.00;98447.44;5100143;28;20067;-90
2023/03/10 04:51:54;;;;;;;15.82;2.38;;;;;;;7.42;100.00;98446.88;5081636;28;20061;-90
2023/03/10 04:54:20;;;;;;;20.13;3.42;;;;;;;7.41;100.00;98445.25;5117041;28;20031;-90
2023/03/10 04:56:48;;;;;;;14.93;3.58;;;;;;;7.47;100.00;98452.34;5098893;28;20031;-89
2023/03/10 04:59:13;;;;;;;16.75;2.65;;;;;;;7.47;100.00;98449.63;5098172;28;20030;-89
2023/03/10 05:01:41;;;;;;;14.45;2.67;;;;;;;7.45;100.00;98445.56;5116557;28;20110;-89
2023/03/10 05:04:09;;;;;;;22.03;3.57;;;;;;;7.47;100.00;98451.50;5116118;28;20124;-90
2023/03/10 05:06:49;;;;;;;16.63;3.03;;;;;;;7.41;100.00;98442.56;5098924;28;20077;-89
2023/03/10 05:09:17;;;;;;;17.85;2.92;;;;;;;7.42;100.00;98443.38;5098800;28;20035;-90
2023/03/10 05:11:47;;;;;;;24.20;3.00;;;;;;;7.34;100.00;98445.44;5098986;28;20062;-90
2023/03/10 05:14:14;;;;;;;11.45;2.67;;;;;;;7.35;100.00;98444.38;5101159;28;20028;-89
2023/03/10 05:16:45;;;;;;;23.60;3.27;;;;;;;7.35;100.00;98432.75;5099696;28;20077;-89
2023/03/10 05:19:11;;;;;;;19.90;3.42;;;;;;;7.40;100.00;98437.38;5097503;28;20023;-89
2023/03/10 05:21:47;;;;;;;19.67;2.83;;;;;;;7.40;100.00;98438.22;5097922;28;20031;-90
2023/03/10 05:24:12;;;;;;;13.80;2.92;;;;;;;7.41;100.00;98444.44;5082129;28;20352;-88
2023/03/10 05:26:41;;;;;;;18.15;3.10;;;;;;;7.39;100.00;98441.97;5115718;28;20078;-89
2023/03/10 05:29:12;;;;;;;17.10;3.13;;;;;;;7.34;100.00;98437.34;5097593;28;20036;-89
2023/03/10 05:31:48;;;;;;;16.05;3.35;;;;;;;7.33;100.00;98434.91;5116050;28;20050;-89
2023/03/10 05:34:25;;;;;;;14.60;2.80;;;;;;;7.33;100.00;98449.19;5097865;28;20383;-89
2023/03/10 05:36:55;;;;;;;19.25;2.90;;;;;;;7.35;100.00;98440.84;5097993;28;20057;-89
2023/03/10 05:39:31;;;;;;;20.95;3.67;;;;;;;7.33;100.00;98440.31;5097863;28;20178;-89
2023/03/10 05:41:57;;;;;;;24.70;4.00;;;;;;;7.31;100.00;98445.16;5081781;28;20036;-89
2023/03/10 05:44:24;;;;;;;21.73;3.40;;;;;;;7.32;100.00;98441.34;5080819;28;20059;-89
2023/03/10 05:46:54;;;;;;;18.20;3.13;;;;;;;7.32;100.00;98444.06;5096749;28;20027;-89
2023/03/10 05:49:19;;;;;;;23.35;3.45;;;;;;;7.35;100.00;98447.09;5096972;28;20027;-89
2023/03/10 05:51:47;;;;;;;23.60;3.73;;;;;;;7.38;100.00;98454.66;5097106;28;20050;-89
2023/03/10 05:54:12;;;;;;;26.80;3.85;;;;;;;7.35;100.00;98448.94;5097160;28;20055;-89
2023/03/10 05:56:40;;;;;;;28.70;3.83;;;;;;;7.34;100.00;98448.13;5116099;28;20020;-89
2023/03/10 05:59:09;;;;;;;20.67;3.42;;;;;;;7.34;100.00;98441.94;5080381;28;20039;-89
2023/03/10 06:01:37;;;;;;;21.67;3.85;;;;;;;7.34;100.00;98442.75;5097036;28;20054;-89
2023/03/10 06:04:08;;;;;;;22.77;4.20;;;;;;;7.38;100.00;98451.97;5080023;28;20122;-89
2023/03/10 06:06:37;;;;;;;23.98;3.67;;;;;;;7.34;100.00;98444.63;5098207;28;20020;-89
2023/03/10 06:09:06;;;;;;;20.73;3.47;;;;;;;7.38;100.00;98453.84;5097231;28;20060;-88
2023/03/10 06:11:32;;;;;;;25.50;3.40;;;;;;;7.33;100.00;98446.50;5080308;28;20039;-88
2023/03/10 06:13:58;;;;;;;26.50;3.78;;;;;;;7.34;100.00;98447.34;5096713;28;20028;-88
2023/03/10 06:16:26;;;;;;;19.67;3.33;;;;;;;7.34;100.00;98440.06;5096811;28;20532;-89
2023/03/10 06:18:54;;;;;;;22.95;3.95;;;;;;;7.36;100.00;98454.09;5096585;28;20084;-89
2023/03/10 06:21:19;;;;;;;31.13;3.80;;;;;;;7.35;100.00;98457.03;5114806;28;20065;-89
2023/03/10 06:23:45;;;;;;;19.20;3.70;;;;;;;7.40;100.00;98464.38;5096465;28;20081;-89
2023/03/10 06:26:13;;;;;;;24.60;4.13;;;;;;;7.38;100.00;98459.22;5096793;28;20023;-89
2023/03/10 06:28:41;;;;;;;30.00;4.50;;;;;;;7.43;100.00;98469.28;5096533;28;20088;-89
2023/03/10 06:34:57;;;;;;;27.15;4.00;;;;;;;7.46;100.00;98472.28;5094611;28;20529;-92
2023/03/10 06:37:30;;;;;;;22.05;3.58;;;;;;;7.47;100.00;98475.78;5076350;28;20027;-91
2023/03/10 06:40:06;;;;;;;;;;;;;;;;;;;;;
2023/03/10 06:42:37;;;;;;;18.50;3.47;;;;;;;7.47;100.00;98457.72;5095097;28;20042;-92
2023/03/10 06:45:03;;;;;;;21.98;3.28;;;;;;;7.46;100.00;98461.50;5076598;28;20114;-89
2023/03/10 06:47:29;;;;;;;14.35;3.47;;;;;;;7.47;100.00;98462.28;5076297;28;20020;-90
2023/03/10 06:49:57;;;;;;;17.42;3.38;;;;;;;7.51;100.00;98471.50;5094563;28;20030;-94
2023/03/10 06:52:23;;;;;;;16.83;3.30;;;;;;;7.50;100.00;98473.41;5076775;28;20035;-94
2023/03/10 06:54:51;;;;;;;11.88;3.10;;;;;;;7.49;100.00;98470.97;5075937;28;20032;-88
2023/03/10 06:57:20;;;;;;;33.30;4.32;;;;;;;7.48;100.00;98463.94;5075678;28;20035;-87
2023/03/10 06:59:48;;;;;;;14.43;3.42;;;;;;;7.54;100.00;98468.31;5075796;28;20032;-91
2023/03/10 07:02:18;;;;;;;19.07;4.27;;;;;;;7.54;100.00;98469.16;5058948;28;20482;-90
2023/03/10 07:05:21;;;;;;;19.10;4.35;;;;;;;7.63;100.00;98469.50;5075736;28;20032;-90
2023/03/10 07:11:27;;;;;;;22.63;4.10;;;;;;;7.69;100.00;98465.78;5037510;28;20080;-88
2023/03/10 07:13:55;;;;;;;25.55;3.45;;;;;;;7.77;100.00;98485.28;5075918;28;20072;-88
2023/03/10 07:16:21;;;;;;;22.87;4.30;;;;;;;7.70;100.00;98472.78;5093706;28;20036;-87
2023/03/10 07:18:47;;;;;;;20.77;3.53;;;;;;;7.72;100.00;98470.66;5075656;28;20051;-85
2023/03/10 07:21:17;;;;;;;14.90;3.27;;;;;;;7.77;100.00;98469.09;5058746;28;20460;-85
2023/03/10 07:23:42;;;;;;;21.35;3.65;;;;;;;7.80;100.00;98476.69;5075887;28;20024;-85
2023/03/10 07:26:09;;;;;;;21.50;3.88;;;;;;;7.87;100.00;98488.91;5093526;28;20428;-86
2023/03/10 07:28:36;;;;;;;13.73;2.70;;;;;;;7.89;100.00;98478.66;5075024;28;20024;-85
2023/03/10 07:31:07;;;;;;;26.48;3.35;;;;;;;7.91;100.00;98478.38;5080811;28;20071;-85
2023/03/10 07:33:34;;;;;;;20.15;3.38;;;;;;;7.94;100.00;98474.38;5095865;28;20080;-84
2023/03/10 07:39:10;;;;;;;17.77;2.88;;;;;;;8.24;100.00;98488.13;5048468;28;20042;-85
2023/03/10 07:41:36;;;;;;;24.80;3.30;;;;;;;8.26;100.00;98482.47;5114672;28;20040;-85
2023/03/10 07:49:11;;;;;;;19.00;2.63;;;;;;;8.39;100.00;98487.44;5553488;22;20459;-86
2023/03/10 07:51:37;;;;;;;14.80;2.07;;;;;;;8.38;100.00;98499.31;5036509;28;20041;-84
2023/03/10 07:54:03;;;;;;;12.23;2.45;;;;;;;8.38;100.00;98501.22;5019222;28;20280;-83
2023/03/10 07:56:28;;;;;;;10.70;2.10;;;;;;;8.32;100.00;98500.34;5018903;28;20065;-84
2023/03/10 07:58:57;;;;;;;17.08;2.47;;;;;;;8.29;100.00;98497.38;5019696;28;20100;-85
2023/03/10 08:01:22;;;;;;;9.80;1.80;;;;;;;8.32;100.00;98499.53;5018937;28;20038;-85
2023/03/10 08:03:48;;;;;;;11.70;1.47;;;;;;;8.28;100.00;98498.44;5019516;28;20108;-85
2023/03/10 08:06:20;;;;;;;17.95;1.90;;;;;;;8.24;100.00;98503.53;5037181;28;20034;-85
2023/03/10 08:08:46;;;;;;;13.95;2.10;;;;;;;8.29;100.00;98494.66;5036690;28;20021;-85
2023/03/10 08:11:12;;;;;;;15.03;1.97;;;;;;;8.38;100.00;98498.50;5036675;28;20495;-85
2023/03/10 08:13:38;;;;;;;14.48;2.25;;;;;;;8.42;100.00;98496.94;5018994;28;20041;-85
2023/03/10 08:16:04;;;;;;;16.60;2.13;;;;;;;8.54;100.00;98502.97;5037296;28;20025;-85
2023/03/10 08:18:30;;;;;;;14.82;2.15;;;;;;;8.65;100.00;98503.06;5019273;28;20120;-85
2023/03/10 08:20:56;;;;;;;18.63;2.05;;;;;;;8.68;100.00;98505.22;5018823;28;20073;-85
2023/03/10 08:23:22;;;;;;;16.52;1.90;;;;;;;8.79;100.00;98496.13;5036239;28;20116;-85
2023/03/10 08:25:48;;;;;;;13.00;1.70;;;;;;;8.82;100.00;98501.00;5002581;28;20037;-84
2023/03/10 08:28:13;;;;;;;10.18;1.77;;;;;;;8.83;100.00;98497.22;5002282;28;20036;-85
2023/03/10 08:30:39;;;;;;;15.40;2.37;;;;;;;8.91;100.00;98506.72;5019085;28;20045;-85
2023/03/10 08:33:08;;;;;;;16.20;2.50;;;;;;;8.98;100.00;98506.53;5018827;28;20029;-85
2023/03/10 08:35:35;;;;;;;12.23;1.70;;;;;;;9.06;100.00;98506.00;5019222;28;20376;-85
2023/03/10 08:38:00;;;;;;;12.98;1.75;;;;;;;9.17;100.00;98499.56;5002467;28;20480;-85
2023/03/10 08:40:26;;;;;;;12.33;1.47;;;;;;;9.23;100.00;98505.81;5035794;28;20086;-86
2023/03/10 08:42:52;;;;;;;18.50;2.00;;;;;;;9.30;100.00;98509.06;5036733;28;20117;-85
2023/03/10 08:45:20;;;;;;;11.90;2.63;;;;;;;9.41;100.00;98502.63;5018371;28;20032;-86
2023/03/10 08:47:48;;;;;;;11.13;1.67;;;;;;;9.56;100.00;98499.16;5001767;28;20029;-86
2023/03/10 08:50:17;;;;;;;11.68;2.42;;;;;;;9.87;100.00;98501.94;5017904;28;20054;-86
2023/03/10 08:52:42;;;;;;;13.98;2.10;;;;;;;10.13;100.00;98502.00;5018091;28;20057;-86
2023/03/10 08:55:09;;;;;;;11.37;1.50;;;;;;;10.21;100.00;98503.34;5001819;28;20048;-86
2023/03/10 08:57:34;;;;;;;9.32;1.70;;;;;;;10.17;100.00;98513.91;5035647;28;20030;-85
2023/03/10 09:00:05;;;;;;;16.30;1.97;;;;;;;10.09;100.00;98509.84;5017890;28;20044;-86
2023/03/10 09:02:30;;;;;;;7.43;1.35;;;;;;;9.86;100.00;98507.63;5018582;28;20033;-86
2023/03/10 09:04:56;;;;;;;7.03;1.37;;;;;;;9.77;100.00;98513.59;5002437;28;20385;-85
2023/03/10 09:07:23;;;;;;;8.87;1.63;;;;;;;9.78;100.00;98508.97;5001507;28;20459;-86
2023/03/10 09:09:49;;;;;;;9.73;1.58;;;;;;;9.80;100.00;98506.81;5018211;28;20029;-86
2023/03/10 09:12:15;;;;;;;10.27;1.50;;;;;;;9.71;100.00;98492.16;5017792;28;20113;-86
2023/03/10 09:14:40;;;;;;;9.67;1.47;;;;;;;9.67;100.00;98500.03;5017836;28;20033;-86
2023/03/10 09:17:06;;;;;;;14.47;2.07;;;;;;;9.77;100.00;98493.81;5017425;28;20029;-86
2023/03/10 09:19:32;;;;;;;15.93;2.38;;;;;;;9.89;100.00;98496.25;5001457;28;20041;-88
2023/03/10 09:21:58;;;;;;;9.93;1.97;;;;;;;9.80;100.00;98490.56;5035762;28;20065;-87
2023/03/10 09:24:26;;;;;;;10.40;1.40;;;;;;;9.67;100.00;98491.91;5017080;28;20026;-85
2023/03/10 09:26:51;;;;;;;12.00;2.55;;;;;;;9.61;100.00;98490.25;5016914;28;20037;-87
2023/03/10 09:29:17;;;;;;;14.33;1.70;;;;;;;9.46;100.00;98493.72;5034961;28;20038;-86
2023/03/10 09:31:43;;;;;;;6.20;1.17;;;;;;;9.41;100.00;98499.94;5017866;28;20037;-86
2023/03/10 09:34:10;;;;;;;11.73;1.58;;;;;;;9.39;100.00;98487.75;5035756;28;20292;-87
2023/03/10 09:36:37;;;;;;;5.72;1.08;;;;;;;9.35;100.00;98492.06;5035266;28;20029;-86
2023/03/10 09:39:03;;;;;;;8.85;1.67;;;;;;;9.34;100.00;98485.03;5017391;28;20048;-86
2023/03/10 09:42:01;;;;;;;7.27;1.10;;;;;;;9.36;100.00;98501.81;5017227;28;20033;-86
2023/03/10 09:44:42;;;;;;;5.85;0.82;;;;;;;9.13;100.00;98506.59;5035508;28;20268;-86
2023/03/10 09:47:34;;;;;;;9.77;1.00;;;;;;;8.99;100.00;98505.41;5035771;28;20104;-86
2023/03/10 09:50:08;;;;;;;9.35;1.77;;;;;;;9.00;100.00;98515.16;5035630;28;20136;-86
2023/03/10 09:52:40;;;;;;;8.13;1.33;;;;;;;9.14;100.00;98513.63;5017589;28;20048;-87
2023/03/10 09:55:40;;;;;;;10.68;1.45;;;;;;;9.23;100.00;98505.81;5017980;28;20407;-85
2023/03/10 09:58:16;;;;;;;7.90;1.13;;;;;;;9.26;100.00;98506.09;5002867;28;20038;-85
2023/03/10 10:00:46;;;;;;;12.82;1.60;;;;;;;9.28;100.00;98517.47;5054784;28;20188;-85
2023/03/10 10:03:19;;;;;;;10.30;1.77;;;;;;;9.25;100.00;98515.28;5021011;28;20040;-85
2023/03/10 10:05:46;;;;;;;12.43;1.48;;;;;;;9.11;100.00;98519.56;5053881;28;20103;-84
2023/03/10 10:08:19;;;;;;;8.98;1.67;;;;;;;9.05;100.00;98523.31;5054352;28;20482;-85
2023/03/10 10:10:50;;;;;;;10.52;1.40;;;;;;;8.98;100.00;98525.44;5036945;28;20487;-85
2023/03/10 10:13:16;;;;;;;18.77;1.92;;;;;;;8.89;100.00;98530.53;5054406;28;20032;-85
2023/03/10 10:15:52;;;;;;;10.68;1.83;;;;;;;8.65;100.00;98525.50;5036432;28;20124;-84
2023/03/10 10:18:30;;;;;;;14.40;2.40;;;;;;;8.47;100.00;98532.09;5053984;28;20025;-84
2023/03/10 10:21:08;;;;;;;11.32;2.00;;;;;;;8.37;100.00;98535.53;5036589;28;20025;-84
2023/03/10 10:23:44;;;;;;;11.77;1.80;;;;;;;8.28;100.00;98538.94;5053946;28;20104;-84
2023/03/10 10:26:12;;;;;;;12.80;2.00;;;;;;;8.25;100.00;98541.09;5035968;28;20098;-83
2023/03/10 10:28:57;;;;;;;12.10;1.77;;;;;;;8.25;100.00;98541.09;5036967;28;20033;-84
2023/03/10 10:31:30;;;;;;;15.93;2.20;;;;;;;8.28;100.00;98534.34;5036127;28;20087;-83
2023/03/10 10:33:57;;;;;;;16.92;2.13;;;;;;;8.37;100.00;98532.00;5036249;28;20111;-83
2023/03/10 10:36:47;;;;;;;17.55;2.20;;;;;;;8.46;100.00;98529.66;5035888;28;20124;-84
2023/03/10 10:39:31;;;;;;;15.82;2.10;;;;;;;8.50;100.00;98526.19;5054178;28;20384;-84
2023/03/10 10:42:29;;;;;;;14.85;2.60;;;;;;;8.54;100.00;98530.00;5036347;28;20029;-83
2023/03/10 10:44:57;;;;;;;14.07;2.13;;;;;;;8.53;100.00;98523.00;5053429;28;20087;-84
2023/03/10 10:47:27;;;;;;;15.30;2.13;;;;;;;8.51;100.00;98516.22;5053403;28;20075;-84
2023/03/10 10:49:53;;;;;;;14.25;2.35;;;;;;;8.58;100.00;98516.81;5054192;28;20524;-84
2023/03/10 10:52:21;;;;;;;18.83;3.20;;;;;;;8.72;100.00;98514.47;5019534;28;20072;-84
2023/03/10 10:54:57;;;;;;;11.55;3.25;;;;;;;8.73;100.00;98503.38;5035797;28;20064;-84
2023/03/10 10:57:34;;;;;;;12.77;3.28;;;;;;;8.69;100.00;98504.16;5036295;28;20415;-85
2023/03/10 11:00:25;;;;;;;11.98;2.72;;;;;;;8.67;100.00;98495.50;5053877;28;20115;-84
2023/03/10 11:02:54;;;;;;;15.80;3.15;;;;;;;8.84;100.00;98489.94;5053665;28;20052;-84
2023/03/10 11:05:32;;;;;;;16.30;2.78;;;;;;;8.90;100.00;98491.56;5035021;28;20499;-84
2023/03/10 11:08:26;;;;;;;15.95;2.20;;;;;;;8.93;100.00;98496.47;5035659;28;20031;-84
2023/03/10 11:11:00;;;;;;;11.68;2.47;;;;;;;8.88;100.00;98494.53;5053288;28;20083;-84
2023/03/10 11:13:58;;;;;;;8.50;1.90;;;;;;;8.91;100.00;98502.13;5053316;28;20025;-84
2023/03/10 11:16:39;;;;;;;8.52;1.90;;;;;;;8.92;100.00;98497.56;5051500;28;20074;-84
2023/03/10 11:19:08;;;;;;;13.43;2.47;;;;;;;8.88;100.00;98494.53;5053116;28;20024;-84
2023/03/10 11:21:43;;;;;;;10.50;2.22;;;;;;;8.83;100.00;98494.53;5035704;28;20029;-84
2023/03/10 11:24:30;;;;;;;10.10;2.00;;;;;;;8.85;100.00;98494.25;5053201;28;20037;-84
2023/03/10 11:34:04;;;;;;;10.55;2.20;;;;;;;8.68;100.00;98483.59;4966311;28;20148;-84
2023/03/10 11:36:43;;;;;;;9.23;2.20;;;;;;;8.63;100.00;98486.28;5053159;28;20033;-84
2023/03/10 11:39:33;;;;;;;7.75;2.33;;;;;;;8.54;100.00;98481.34;5053187;28;20487;-84
2023/03/10 11:42:10;;;;;;;9.38;2.58;;;;;;;8.51;100.00;98479.19;5053524;28;20033;-84
2023/03/10 11:45:01;;;;;;;5.40;2.83;;;;;;;8.45;100.00;98482.94;5035889;28;20029;-84
2023/03/10 11:48:00;;;;;;;5.78;3.17;;;;;;;8.43;100.00;98476.94;5035006;28;20112;-84
2023/03/10 11:50:54;;;;;;;6.55;2.88;;;;;;;8.45;100.00;98472.13;5032501;28;20046;-84
2023/03/10 11:54:00;;;;;;;6.70;3.42;;;;;;;8.48;100.00;98478.91;5035109;28;20128;-84
2023/03/10 11:56:27;;;;;;;5.85;2.88;;;;;;;8.48;100.00;98468.09;4991617;28;20404;-84
2023/03/10 11:59:17;;;;;;;6.20;3.58;;;;;;;8.48;100.00;98466.19;5035438;28;20040;-84
2023/03/10 12:02:05;;;;;;;4.60;2.78;;;;;;;8.46;100.00;98462.94;5035322;28;20040;-84
2023/03/10 12:04:49;;;;;;;6.53;2.85;;;;;;;8.47;100.00;98455.63;5052821;28;20025;-84
2023/03/10 12:07:29;;;;;;;8.80;3.35;;;;;;;8.49;100.00;98453.47;5035463;28;20029;-85